sensor_id;sensor_type;location;lat;lon;timestamp;P1;durP1;ratioP1;P2;durP2;ratioP2
4565;SDS011;2295;51.050;14.608;2023-05-29T00:02:28;5.88;;;3.58;;
4565;SDS011;2295;51.050;14.608;2023-05-29T00:04:57;5.03;;;3.30;;
4565;SDS011;2295;51.050;14.608;2023-05-29T00:07:25;6.80;;;3.40;;
4565;SDS011;2295;51.050;14.608;2023-05-29T00:09:54;7.32;;;3.78;;
4565;SDS011;2295;51.050;14.608;2023-05-29T00:12:22;10.07;;;3.42;;
4565;SDS011;2295;51.050;14.608;2023-05-29T00:14:50;6.82;;;3.55;;
4565;SDS011;2295;51.050;14.608;2023-05-29T00:17:18;6.85;;;4.03;;
4565;SDS011;2295;51.050;14.608;2023-05-29T00:19:49;5.03;;;3.33;;
4565;SDS011;2295;51.050;14.608;2023-05-29T00:22:17;3.42;;;3.00;;
4565;SDS011;2295;51.050;14.608;2023-05-29T00:24:46;6.50;;;4.03;;
4565;SDS011;2295;51.050;14.608;2023-05-29T00:27:14;4.95;;;3.67;;
4565;SDS011;2295;51.050;14.608;2023-05-29T00:29:43;4.45;;;3.30;;
4565;SDS011;2295;51.050;14.608;2023-05-29T00:32:11;8.02;;;4.18;;
4565;SDS011;2295;51.050;14.608;2023-05-29T00:34:39;8.13;;;3.45;;
4565;SDS011;2295;51.050;14.608;2023-05-29T00:37:09;7.95;;;3.40;;
4565;SDS011;2295;51.050;14.608;2023-05-29T00:39:37;4.18;;;3.10;;
4565;SDS011;2295;51.050;14.608;2023-05-29T00:42:06;6.88;;;3.78;;
4565;SDS011;2295;51.050;14.608;2023-05-29T00:44:34;4.85;;;3.40;;
4565;SDS011;2295;51.050;14.608;2023-05-29T00:47:03;5.05;;;3.70;;
4565;SDS011;2295;51.050;14.608;2023-05-29T00:49:31;5.85;;;3.80;;
4565;SDS011;2295;51.050;14.608;2023-05-29T00:52:00;4.65;;;3.40;;
4565;SDS011;2295;51.050;14.608;2023-05-29T00:54:32;7.68;;;4.65;;
4565;SDS011;2295;51.050;14.608;2023-05-29T00:57:01;8.40;;;3.55;;
4565;SDS011;2295;51.050;14.608;2023-05-29T00:59:31;5.30;;;3.65;;
4565;SDS011;2295;51.050;14.608;2023-05-29T01:02:00;5.55;;;3.80;;
4565;SDS011;2295;51.050;14.608;2023-05-29T01:04:30;4.93;;;3.70;;
4565;SDS011;2295;51.050;14.608;2023-05-29T01:07:00;5.65;;;4.43;;
4565;SDS011;2295;51.050;14.608;2023-05-29T01:09:31;5.53;;;3.58;;
4565;SDS011;2295;51.050;14.608;2023-05-29T01:12:02;8.00;;;4.00;;
4565;SDS011;2295;51.050;14.608;2023-05-29T01:14:44;5.30;;;4.20;;
4565;SDS011;2295;51.050;14.608;2023-05-29T01:17:21;9.70;;;4.63;;
4565;SDS011;2295;51.050;14.608;2023-05-29T01:20:01;10.30;;;4.47;;
4565;SDS011;2295;51.050;14.608;2023-05-29T01:22:40;5.65;;;3.78;;
4565;SDS011;2295;51.050;14.608;2023-05-29T01:25:23;6.95;;;3.55;;
4565;SDS011;2295;51.050;14.608;2023-05-29T01:27:58;6.47;;;4.03;;
4565;SDS011;2295;51.050;14.608;2023-05-29T01:30:31;6.20;;;4.35;;
4565;SDS011;2295;51.050;14.608;2023-05-29T01:33:01;6.45;;;3.95;;
4565;SDS011;2295;51.050;14.608;2023-05-29T01:35:31;9.13;;;4.43;;
4565;SDS011;2295;51.050;14.608;2023-05-29T01:37:59;6.13;;;4.03;;
4565;SDS011;2295;51.050;14.608;2023-05-29T01:40:27;6.82;;;4.50;;
4565;SDS011;2295;51.050;14.608;2023-05-29T01:42:56;9.55;;;5.70;;
4565;SDS011;2295;51.050;14.608;2023-05-29T01:45:26;6.55;;;4.72;;
4565;SDS011;2295;51.050;14.608;2023-05-29T01:47:55;6.55;;;5.03;;
4565;SDS011;2295;51.050;14.608;2023-05-29T01:50:23;11.48;;;4.70;;
4565;SDS011;2295;51.050;14.608;2023-05-29T01:52:52;9.00;;;4.80;;
4565;SDS011;2295;51.050;14.608;2023-05-29T01:55:21;6.63;;;4.70;;
4565;SDS011;2295;51.050;14.608;2023-05-29T01:57:49;6.07;;;4.30;;
4565;SDS011;2295;51.050;14.608;2023-05-29T02:00:20;5.97;;;4.20;;
4565;SDS011;2295;51.050;14.608;2023-05-29T02:02:50;6.97;;;3.78;;
4565;SDS011;2295;51.050;14.608;2023-05-29T02:05:18;10.02;;;4.30;;
4565;SDS011;2295;51.050;14.608;2023-05-29T02:07:47;6.63;;;4.47;;
4565;SDS011;2295;51.050;14.608;2023-05-29T02:10:16;12.27;;;4.28;;
4565;SDS011;2295;51.050;14.608;2023-05-29T02:12:44;6.20;;;4.35;;
4565;SDS011;2295;51.050;14.608;2023-05-29T02:15:13;7.53;;;3.95;;
4565;SDS011;2295;51.050;14.608;2023-05-29T02:17:42;5.07;;;4.32;;
4565;SDS011;2295;51.050;14.608;2023-05-29T02:20:11;11.43;;;4.20;;
4565;SDS011;2295;51.050;14.608;2023-05-29T02:22:39;6.32;;;4.32;;
4565;SDS011;2295;51.050;14.608;2023-05-29T02:25:08;6.85;;;4.15;;
4565;SDS011;2295;51.050;14.608;2023-05-29T02:27:36;7.07;;;4.38;;
4565;SDS011;2295;51.050;14.608;2023-05-29T02:30:05;9.13;;;4.60;;
4565;SDS011;2295;51.050;14.608;2023-05-29T02:32:35;4.65;;;4.03;;
4565;SDS011;2295;51.050;14.608;2023-05-29T02:35:04;5.55;;;3.72;;
4565;SDS011;2295;51.050;14.608;2023-05-29T02:37:33;6.93;;;3.63;;
4565;SDS011;2295;51.050;14.608;2023-05-29T02:40:01;11.10;;;4.47;;
4565;SDS011;2295;51.050;14.608;2023-05-29T02:42:30;9.10;;;4.65;;
4565;SDS011;2295;51.050;14.608;2023-05-29T02:44:58;6.30;;;4.40;;
4565;SDS011;2295;51.050;14.608;2023-05-29T02:47:27;7.45;;;4.57;;
4565;SDS011;2295;51.050;14.608;2023-05-29T02:49:56;7.38;;;4.53;;
4565;SDS011;2295;51.050;14.608;2023-05-29T02:52:25;5.38;;;4.22;;
4565;SDS011;2295;51.050;14.608;2023-05-29T02:54:54;7.15;;;4.68;;
4565;SDS011;2295;51.050;14.608;2023-05-29T02:57:22;7.05;;;4.10;;
4565;SDS011;2295;51.050;14.608;2023-05-29T02:59:51;6.72;;;4.30;;
4565;SDS011;2295;51.050;14.608;2023-05-29T03:02:19;6.60;;;4.00;;
4565;SDS011;2295;51.050;14.608;2023-05-29T03:04:47;5.45;;;4.03;;
4565;SDS011;2295;51.050;14.608;2023-05-29T03:07:16;5.50;;;4.00;;
4565;SDS011;2295;51.050;14.608;2023-05-29T03:09:46;6.07;;;3.95;;
4565;SDS011;2295;51.050;14.608;2023-05-29T03:12:15;6.57;;;3.95;;
4565;SDS011;2295;51.050;14.608;2023-05-29T03:14:45;9.20;;;4.40;;
4565;SDS011;2295;51.050;14.608;2023-05-29T03:17:13;9.88;;;4.28;;
4565;SDS011;2295;51.050;14.608;2023-05-29T03:19:41;9.23;;;4.60;;
4565;SDS011;2295;51.050;14.608;2023-05-29T03:22:10;6.57;;;4.43;;
4565;SDS011;2295;51.050;14.608;2023-05-29T03:24:38;8.75;;;4.53;;
4565;SDS011;2295;51.050;14.608;2023-05-29T03:27:08;8.80;;;4.70;;
4565;SDS011;2295;51.050;14.608;2023-05-29T03:29:36;9.50;;;4.82;;
4565;SDS011;2295;51.050;14.608;2023-05-29T03:32:05;12.80;;;4.88;;
4565;SDS011;2295;51.050;14.608;2023-05-29T03:34:33;11.82;;;4.78;;
4565;SDS011;2295;51.050;14.608;2023-05-29T03:37:01;6.72;;;4.30;;
4565;SDS011;2295;51.050;14.608;2023-05-29T03:39:30;5.93;;;4.18;;
4565;SDS011;2295;51.050;14.608;2023-05-29T03:41:58;6.22;;;4.20;;
4565;SDS011;2295;51.050;14.608;2023-05-29T03:44:30;11.80;;;4.45;;
4565;SDS011;2295;51.050;14.608;2023-05-29T03:46:59;6.18;;;4.25;;
4565;SDS011;2295;51.050;14.608;2023-05-29T03:49:27;7.78;;;4.40;;
4565;SDS011;2295;51.050;14.608;2023-05-29T03:51:55;7.10;;;4.28;;
4565;SDS011;2295;51.050;14.608;2023-05-29T03:54:23;8.57;;;4.28;;
4565;SDS011;2295;51.050;14.608;2023-05-29T03:56:52;5.90;;;4.40;;
4565;SDS011;2295;51.050;14.608;2023-05-29T03:59:20;6.47;;;4.05;;
4565;SDS011;2295;51.050;14.608;2023-05-29T04:01:50;8.90;;;4.70;;
4565;SDS011;2295;51.050;14.608;2023-05-29T04:04:18;8.82;;;5.10;;
4565;SDS011;2295;51.050;14.608;2023-05-29T04:06:47;7.88;;;4.35;;
4565;SDS011;2295;51.050;14.608;2023-05-29T04:09:15;6.65;;;4.50;;
4565;SDS011;2295;51.050;14.608;2023-05-29T04:11:44;4.88;;;3.85;;
4565;SDS011;2295;51.050;14.608;2023-05-29T04:14:12;7.22;;;4.70;;
4565;SDS011;2295;51.050;14.608;2023-05-29T04:16:40;7.78;;;4.30;;
4565;SDS011;2295;51.050;14.608;2023-05-29T04:19:10;6.72;;;4.50;;
4565;SDS011;2295;51.050;14.608;2023-05-29T04:21:38;11.00;;;4.63;;
4565;SDS011;2295;51.050;14.608;2023-05-29T04:24:07;5.88;;;3.50;;
4565;SDS011;2295;51.050;14.608;2023-05-29T04:26:35;6.88;;;4.68;;
4565;SDS011;2295;51.050;14.608;2023-05-29T04:29:07;7.50;;;4.40;;
4565;SDS011;2295;51.050;14.608;2023-05-29T04:31:39;12.07;;;3.90;;
4565;SDS011;2295;51.050;14.608;2023-05-29T04:34:08;6.72;;;4.50;;
4565;SDS011;2295;51.050;14.608;2023-05-29T04:36:38;10.60;;;6.05;;
4565;SDS011;2295;51.050;14.608;2023-05-29T04:39:07;4.72;;;3.95;;
4565;SDS011;2295;51.050;14.608;2023-05-29T04:41:35;5.45;;;4.10;;
4565;SDS011;2295;51.050;14.608;2023-05-29T04:44:04;4.75;;;3.95;;
4565;SDS011;2295;51.050;14.608;2023-05-29T04:46:32;7.68;;;4.70;;
4565;SDS011;2295;51.050;14.608;2023-05-29T04:49:01;9.32;;;4.47;;
4565;SDS011;2295;51.050;14.608;2023-05-29T04:51:31;9.70;;;4.45;;
4565;SDS011;2295;51.050;14.608;2023-05-29T04:54:00;6.47;;;3.72;;
4565;SDS011;2295;51.050;14.608;2023-05-29T04:56:29;13.30;;;4.55;;
4565;SDS011;2295;51.050;14.608;2023-05-29T04:58:57;6.60;;;4.45;;
4565;SDS011;2295;51.050;14.608;2023-05-29T05:01:25;10.98;;;3.90;;
4565;SDS011;2295;51.050;14.608;2023-05-29T05:03:53;8.82;;;4.20;;
4565;SDS011;2295;51.050;14.608;2023-05-29T05:06:22;8.50;;;4.20;;
4565;SDS011;2295;51.050;14.608;2023-05-29T05:08:51;5.40;;;4.17;;
4565;SDS011;2295;51.050;14.608;2023-05-29T05:11:22;4.23;;;3.63;;
4565;SDS011;2295;51.050;14.608;2023-05-29T05:13:51;6.10;;;4.00;;
4565;SDS011;2295;51.050;14.608;2023-05-29T05:16:19;7.20;;;4.10;;
4565;SDS011;2295;51.050;14.608;2023-05-29T05:18:48;4.90;;;3.77;;
4565;SDS011;2295;51.050;14.608;2023-05-29T05:21:16;4.70;;;3.50;;
4565;SDS011;2295;51.050;14.608;2023-05-29T05:23:45;8.43;;;3.63;;
4565;SDS011;2295;51.050;14.608;2023-05-29T05:26:25;6.40;;;3.50;;
4565;SDS011;2295;51.050;14.608;2023-05-29T05:28:53;5.40;;;3.30;;
4565;SDS011;2295;51.050;14.608;2023-05-29T05:31:22;9.57;;;2.90;;
4565;SDS011;2295;51.050;14.608;2023-05-29T05:33:52;5.43;;;3.00;;
4565;SDS011;2295;51.050;14.608;2023-05-29T05:36:21;4.17;;;2.87;;
4565;SDS011;2295;51.050;14.608;2023-05-29T05:38:49;2.83;;;2.60;;
4565;SDS011;2295;51.050;14.608;2023-05-29T05:41:18;5.50;;;2.67;;
4565;SDS011;2295;51.050;14.608;2023-05-29T05:43:49;4.10;;;2.63;;
4565;SDS011;2295;51.050;14.608;2023-05-29T05:46:17;3.30;;;2.50;;
4565;SDS011;2295;51.050;14.608;2023-05-29T05:48:46;4.37;;;2.60;;
4565;SDS011;2295;51.050;14.608;2023-05-29T05:51:14;5.30;;;2.47;;
4565;SDS011;2295;51.050;14.608;2023-05-29T05:53:42;4.33;;;2.57;;
4565;SDS011;2295;51.050;14.608;2023-05-29T05:56:11;4.60;;;2.17;;
4565;SDS011;2295;51.050;14.608;2023-05-29T05:58:39;3.50;;;2.00;;
4565;SDS011;2295;51.050;14.608;2023-05-29T06:01:10;2.70;;;2.50;;
4565;SDS011;2295;51.050;14.608;2023-05-29T06:03:38;4.60;;;2.50;;
4565;SDS011;2295;51.050;14.608;2023-05-29T06:06:06;10.03;;;2.50;;
4565;SDS011;2295;51.050;14.608;2023-05-29T06:08:35;2.93;;;2.73;;
4565;SDS011;2295;51.050;14.608;2023-05-29T06:11:04;2.87;;;2.60;;
4565;SDS011;2295;51.050;14.608;2023-05-29T06:13:32;5.13;;;2.77;;
4565;SDS011;2295;51.050;14.608;2023-05-29T06:16:00;2.50;;;2.30;;
4565;SDS011;2295;51.050;14.608;2023-05-29T06:18:30;11.43;;;2.60;;
4565;SDS011;2295;51.050;14.608;2023-05-29T06:20:58;4.80;;;3.00;;
4565;SDS011;2295;51.050;14.608;2023-05-29T06:23:28;6.77;;;2.50;;
4565;SDS011;2295;51.050;14.608;2023-05-29T06:25:56;10.57;;;3.00;;
4565;SDS011;2295;51.050;14.608;2023-05-29T06:28:24;2.70;;;2.00;;
4565;SDS011;2295;51.050;14.608;2023-05-29T06:30:53;2.97;;;2.60;;
4565;SDS011;2295;51.050;14.608;2023-05-29T06:33:21;9.13;;;3.13;;
4565;SDS011;2295;51.050;14.608;2023-05-29T06:35:51;2.70;;;2.40;;
4565;SDS011;2295;51.050;14.608;2023-05-29T06:38:20;3.30;;;2.87;;
4565;SDS011;2295;51.050;14.608;2023-05-29T06:40:48;4.30;;;2.70;;
4565;SDS011;2295;51.050;14.608;2023-05-29T06:43:16;2.70;;;2.50;;
4565;SDS011;2295;51.050;14.608;2023-05-29T06:45:45;2.90;;;2.70;;
4565;SDS011;2295;51.050;14.608;2023-05-29T06:48:13;18.37;;;2.50;;
4565;SDS011;2295;51.050;14.608;2023-05-29T06:50:41;6.63;;;2.67;;
4565;SDS011;2295;51.050;14.608;2023-05-29T06:53:11;3.13;;;2.87;;
4565;SDS011;2295;51.050;14.608;2023-05-29T06:55:42;7.23;;;2.60;;
4565;SDS011;2295;51.050;14.608;2023-05-29T06:58:10;10.43;;;2.37;;
4565;SDS011;2295;51.050;14.608;2023-05-29T07:04:02;4.40;;;3.00;;
4565;SDS011;2295;51.050;14.608;2023-05-29T07:06:31;10.30;;;2.60;;
4565;SDS011;2295;51.050;14.608;2023-05-29T07:09:01;2.70;;;2.40;;
4565;SDS011;2295;51.050;14.608;2023-05-29T07:11:29;7.53;;;2.57;;
4565;SDS011;2295;51.050;14.608;2023-05-29T07:13:58;6.27;;;2.20;;
4565;SDS011;2295;51.050;14.608;2023-05-29T07:16:26;5.73;;;2.93;;
4565;SDS011;2295;51.050;14.608;2023-05-29T07:18:54;9.90;;;2.70;;
4565;SDS011;2295;51.050;14.608;2023-05-29T07:21:22;2.97;;;2.13;;
4565;SDS011;2295;51.050;14.608;2023-05-29T07:23:51;3.97;;;2.57;;
4565;SDS011;2295;51.050;14.608;2023-05-29T07:26:21;3.20;;;2.30;;
4565;SDS011;2295;51.050;14.608;2023-05-29T07:28:52;3.57;;;2.47;;
4565;SDS011;2295;51.050;14.608;2023-05-29T07:31:21;9.60;;;3.63;;
4565;SDS011;2295;51.050;14.608;2023-05-29T07:33:49;3.10;;;2.77;;
4565;SDS011;2295;51.050;14.608;2023-05-29T07:36:17;4.77;;;2.17;;
4565;SDS011;2295;51.050;14.608;2023-05-29T07:38:46;2.40;;;2.20;;
4565;SDS011;2295;51.050;14.608;2023-05-29T07:41:15;4.30;;;2.07;;
4565;SDS011;2295;51.050;14.608;2023-05-29T07:43:45;1.93;;;1.73;;
4565;SDS011;2295;51.050;14.608;2023-05-29T07:46:17;5.00;;;2.00;;
4565;SDS011;2295;51.050;14.608;2023-05-29T07:48:46;5.20;;;2.00;;
4565;SDS011;2295;51.050;14.608;2023-05-29T07:51:14;3.43;;;2.30;;
4565;SDS011;2295;51.050;14.608;2023-05-29T07:53:43;2.80;;;2.07;;
4565;SDS011;2295;51.050;14.608;2023-05-29T07:56:12;5.67;;;2.10;;
4565;SDS011;2295;51.050;14.608;2023-05-29T07:58:41;3.80;;;2.00;;
4565;SDS011;2295;51.050;14.608;2023-05-29T08:01:11;3.93;;;1.90;;
4565;SDS011;2295;51.050;14.608;2023-05-29T08:03:41;3.90;;;1.80;;
4565;SDS011;2295;51.050;14.608;2023-05-29T08:06:10;2.53;;;1.77;;
4565;SDS011;2295;51.050;14.608;2023-05-29T08:08:38;2.60;;;1.93;;
4565;SDS011;2295;51.050;14.608;2023-05-29T08:11:06;5.60;;;3.10;;
4565;SDS011;2295;51.050;14.608;2023-05-29T08:13:35;7.30;;;2.80;;
4565;SDS011;2295;51.050;14.608;2023-05-29T08:16:04;10.60;;;2.70;;
4565;SDS011;2295;51.050;14.608;2023-05-29T08:18:33;7.90;;;3.33;;
4565;SDS011;2295;51.050;14.608;2023-05-29T08:21:02;10.20;;;4.10;;
4565;SDS011;2295;51.050;14.608;2023-05-29T08:23:31;3.80;;;3.50;;
4565;SDS011;2295;51.050;14.608;2023-05-29T08:26:01;11.03;;;3.97;;
4565;SDS011;2295;51.050;14.608;2023-05-29T08:28:30;3.30;;;2.90;;
4565;SDS011;2295;51.050;14.608;2023-05-29T08:30:58;4.67;;;3.20;;
4565;SDS011;2295;51.050;14.608;2023-05-29T08:33:26;4.53;;;3.30;;
4565;SDS011;2295;51.050;14.608;2023-05-29T08:35:57;4.43;;;3.77;;
4565;SDS011;2295;51.050;14.608;2023-05-29T08:38:26;6.50;;;3.80;;
4565;SDS011;2295;51.050;14.608;2023-05-29T08:40:54;3.47;;;3.10;;
4565;SDS011;2295;51.050;14.608;2023-05-29T08:43:24;3.20;;;2.90;;
4565;SDS011;2295;51.050;14.608;2023-05-29T08:45:59;9.57;;;3.40;;
4565;SDS011;2295;51.050;14.608;2023-05-29T08:48:29;3.40;;;3.10;;
4565;SDS011;2295;51.050;14.608;2023-05-29T08:50:59;4.97;;;2.90;;
4565;SDS011;2295;51.050;14.608;2023-05-29T08:53:29;3.40;;;2.60;;
4565;SDS011;2295;51.050;14.608;2023-05-29T08:55:59;6.40;;;2.40;;
4565;SDS011;2295;51.050;14.608;2023-05-29T08:58:29;2.60;;;2.40;;
4565;SDS011;2295;51.050;14.608;2023-05-29T09:00:58;2.93;;;2.27;;
4565;SDS011;2295;51.050;14.608;2023-05-29T09:03:26;6.78;;;2.42;;
4565;SDS011;2295;51.050;14.608;2023-05-29T09:05:57;7.70;;;2.80;;
4565;SDS011;2295;51.050;14.608;2023-05-29T09:08:29;2.50;;;2.30;;
4565;SDS011;2295;51.050;14.608;2023-05-29T09:10:59;2.70;;;2.47;;
4565;SDS011;2295;51.050;14.608;2023-05-29T09:13:27;2.50;;;2.30;;
4565;SDS011;2295;51.050;14.608;2023-05-29T09:15:57;4.33;;;2.60;;
4565;SDS011;2295;51.050;14.608;2023-05-29T09:18:28;3.33;;;2.77;;
4565;SDS011;2295;51.050;14.608;2023-05-29T09:20:57;2.47;;;2.10;;
4565;SDS011;2295;51.050;14.608;2023-05-29T09:23:28;5.30;;;2.50;;
4565;SDS011;2295;51.050;14.608;2023-05-29T09:25:57;4.83;;;2.23;;
4565;SDS011;2295;51.050;14.608;2023-05-29T09:28:25;8.03;;;2.57;;
4565;SDS011;2295;51.050;14.608;2023-05-29T09:30:54;10.00;;;2.13;;
4565;SDS011;2295;51.050;14.608;2023-05-29T09:33:24;4.17;;;2.07;;
4565;SDS011;2295;51.050;14.608;2023-05-29T09:35:55;2.73;;;2.27;;
4565;SDS011;2295;51.050;14.608;2023-05-29T09:38:26;3.20;;;2.30;;
4565;SDS011;2295;51.050;14.608;2023-05-29T09:41:20;8.33;;;2.07;;
4565;SDS011;2295;51.050;14.608;2023-05-29T09:43:50;3.17;;;2.10;;
4565;SDS011;2295;51.050;14.608;2023-05-29T09:46:22;3.57;;;1.90;;
4565;SDS011;2295;51.050;14.608;2023-05-29T09:48:53;4.00;;;2.20;;
4565;SDS011;2295;51.050;14.608;2023-05-29T09:51:22;2.97;;;2.27;;
4565;SDS011;2295;51.050;14.608;2023-05-29T09:53:54;2.30;;;2.00;;
4565;SDS011;2295;51.050;14.608;2023-05-29T09:56:27;6.30;;;2.00;;
4565;SDS011;2295;51.050;14.608;2023-05-29T09:58:57;2.30;;;2.10;;
4565;SDS011;2295;51.050;14.608;2023-05-29T10:01:26;4.57;;;2.07;;
4565;SDS011;2295;51.050;14.608;2023-05-29T10:03:55;6.00;;;1.73;;
4565;SDS011;2295;51.050;14.608;2023-05-29T10:06:23;3.87;;;2.00;;
4565;SDS011;2295;51.050;14.608;2023-05-29T10:08:51;4.87;;;2.60;;
4565;SDS011;2295;51.050;14.608;2023-05-29T10:11:22;5.90;;;1.97;;
4565;SDS011;2295;51.050;14.608;2023-05-29T10:13:53;5.03;;;1.90;;
4565;SDS011;2295;51.050;14.608;2023-05-29T10:16:24;6.63;;;2.27;;
4565;SDS011;2295;51.050;14.608;2023-05-29T10:18:54;2.60;;;1.63;;
4565;SDS011;2295;51.050;14.608;2023-05-29T10:21:24;1.90;;;1.70;;
4565;SDS011;2295;51.050;14.608;2023-05-29T10:23:55;1.90;;;1.67;;
4565;SDS011;2295;51.050;14.608;2023-05-29T10:26:25;5.17;;;2.40;;
4565;SDS011;2295;51.050;14.608;2023-05-29T10:28:56;3.77;;;2.10;;
4565;SDS011;2295;51.050;14.608;2023-05-29T10:31:30;4.43;;;2.20;;
4565;SDS011;2295;51.050;14.608;2023-05-29T10:34:11;2.90;;;2.20;;
4565;SDS011;2295;51.050;14.608;2023-05-29T10:36:49;7.73;;;2.17;;
4565;SDS011;2295;51.050;14.608;2023-05-29T10:39:24;5.30;;;1.97;;
4565;SDS011;2295;51.050;14.608;2023-05-29T10:41:53;2.30;;;1.93;;
4565;SDS011;2295;51.050;14.608;2023-05-29T10:47:22;2.60;;;2.10;;
4565;SDS011;2295;51.050;14.608;2023-05-29T10:49:51;3.00;;;1.80;;
4565;SDS011;2295;51.050;14.608;2023-05-29T10:52:30;5.50;;;2.53;;
4565;SDS011;2295;51.050;14.608;2023-05-29T10:55:00;4.83;;;1.60;;
4565;SDS011;2295;51.050;14.608;2023-05-29T10:57:30;3.33;;;1.57;;
4565;SDS011;2295;51.050;14.608;2023-05-29T11:00:02;4.70;;;2.20;;
4565;SDS011;2295;51.050;14.608;2023-05-29T11:02:39;2.70;;;2.20;;
4565;SDS011;2295;51.050;14.608;2023-05-29T11:05:18;3.20;;;2.40;;
4565;SDS011;2295;51.050;14.608;2023-05-29T11:07:51;4.13;;;2.90;;
4565;SDS011;2295;51.050;14.608;2023-05-29T11:10:42;5.90;;;2.97;;
4565;SDS011;2295;51.050;14.608;2023-05-29T11:13:22;7.03;;;2.70;;
4565;SDS011;2295;51.050;14.608;2023-05-29T11:16:05;2.30;;;2.20;;
4565;SDS011;2295;51.050;14.608;2023-05-29T11:18:38;2.70;;;2.10;;
4565;SDS011;2295;51.050;14.608;2023-05-29T11:21:12;2.23;;;2.13;;
4565;SDS011;2295;51.050;14.608;2023-05-29T11:24:00;2.50;;;1.90;;
4565;SDS011;2295;51.050;14.608;2023-05-29T11:26:36;4.13;;;2.03;;
4565;SDS011;2295;51.050;14.608;2023-05-29T11:29:05;4.70;;;2.30;;
4565;SDS011;2295;51.050;14.608;2023-05-29T11:31:39;2.10;;;1.90;;
4565;SDS011;2295;51.050;14.608;2023-05-29T11:34:09;4.90;;;2.40;;
4565;SDS011;2295;51.050;14.608;2023-05-29T11:36:41;3.63;;;2.37;;
4565;SDS011;2295;51.050;14.608;2023-05-29T11:39:10;7.70;;;2.47;;
4565;SDS011;2295;51.050;14.608;2023-05-29T11:41:40;3.80;;;2.30;;
4565;SDS011;2295;51.050;14.608;2023-05-29T11:44:08;2.77;;;2.43;;
4565;SDS011;2295;51.050;14.608;2023-05-29T11:46:44;3.43;;;2.40;;
4565;SDS011;2295;51.050;14.608;2023-05-29T11:49:12;5.37;;;2.60;;
4565;SDS011;2295;51.050;14.608;2023-05-29T11:51:41;4.40;;;2.30;;
4565;SDS011;2295;51.050;14.608;2023-05-29T11:54:11;2.73;;;2.20;;
4565;SDS011;2295;51.050;14.608;2023-05-29T11:56:41;8.20;;;2.90;;
4565;SDS011;2295;51.050;14.608;2023-05-29T11:59:10;2.50;;;2.10;;
4565;SDS011;2295;51.050;14.608;2023-05-29T12:01:39;8.33;;;2.83;;
4565;SDS011;2295;51.050;14.608;2023-05-29T12:04:14;3.30;;;2.30;;
4565;SDS011;2295;51.050;14.608;2023-05-29T12:06:43;2.73;;;2.03;;
4565;SDS011;2295;51.050;14.608;2023-05-29T12:09:22;2.80;;;2.30;;
4565;SDS011;2295;51.050;14.608;2023-05-29T12:11:53;2.30;;;2.10;;
4565;SDS011;2295;51.050;14.608;2023-05-29T12:14:28;2.20;;;2.00;;
4565;SDS011;2295;51.050;14.608;2023-05-29T12:16:57;2.83;;;1.90;;
4565;SDS011;2295;51.050;14.608;2023-05-29T12:19:28;2.33;;;1.77;;
4565;SDS011;2295;51.050;14.608;2023-05-29T12:21:56;2.70;;;1.90;;
4565;SDS011;2295;51.050;14.608;2023-05-29T12:24:31;2.03;;;1.83;;
4565;SDS011;2295;51.050;14.608;2023-05-29T12:27:10;3.80;;;1.90;;
4565;SDS011;2295;51.050;14.608;2023-05-29T12:29:38;8.67;;;1.73;;
4565;SDS011;2295;51.050;14.608;2023-05-29T12:32:09;3.90;;;2.10;;
4565;SDS011;2295;51.050;14.608;2023-05-29T12:34:37;3.33;;;2.00;;
4565;SDS011;2295;51.050;14.608;2023-05-29T12:37:08;2.27;;;1.90;;
4565;SDS011;2295;51.050;14.608;2023-05-29T12:39:40;3.00;;;2.03;;
4565;SDS011;2295;51.050;14.608;2023-05-29T12:42:10;2.07;;;1.90;;
4565;SDS011;2295;51.050;14.608;2023-05-29T12:44:41;5.53;;;2.17;;
4565;SDS011;2295;51.050;14.608;2023-05-29T12:47:13;2.23;;;2.03;;
4565;SDS011;2295;51.050;14.608;2023-05-29T12:49:42;4.23;;;2.20;;
4565;SDS011;2295;51.050;14.608;2023-05-29T12:52:11;8.80;;;2.50;;
4565;SDS011;2295;51.050;14.608;2023-05-29T12:54:41;2.87;;;2.30;;
4565;SDS011;2295;51.050;14.608;2023-05-29T12:57:11;5.50;;;2.40;;
4565;SDS011;2295;51.050;14.608;2023-05-29T12:59:39;4.53;;;2.43;;
4565;SDS011;2295;51.050;14.608;2023-05-29T13:02:07;4.07;;;2.00;;
4565;SDS011;2295;51.050;14.608;2023-05-29T13:04:36;2.93;;;2.13;;
4565;SDS011;2295;51.050;14.608;2023-05-29T13:07:04;3.50;;;2.30;;
4565;SDS011;2295;51.050;14.608;2023-05-29T13:09:33;2.97;;;2.17;;
4565;SDS011;2295;51.050;14.608;2023-05-29T13:12:01;5.13;;;2.40;;
4565;SDS011;2295;51.050;14.608;2023-05-29T13:14:31;3.00;;;2.23;;
4565;SDS011;2295;51.050;14.608;2023-05-29T13:16:59;4.00;;;2.97;;
4565;SDS011;2295;51.050;14.608;2023-05-29T13:19:28;2.50;;;2.20;;
4565;SDS011;2295;51.050;14.608;2023-05-29T13:21:56;4.27;;;2.40;;
4565;SDS011;2295;51.050;14.608;2023-05-29T13:24:24;2.63;;;2.43;;
4565;SDS011;2295;51.050;14.608;2023-05-29T13:26:52;3.67;;;2.20;;
4565;SDS011;2295;51.050;14.608;2023-05-29T13:29:21;1.90;;;1.70;;
4565;SDS011;2295;51.050;14.608;2023-05-29T13:31:50;3.53;;;2.80;;
4565;SDS011;2295;51.050;14.608;2023-05-29T13:34:19;3.80;;;2.53;;
4565;SDS011;2295;51.050;14.608;2023-05-29T13:36:49;4.70;;;2.50;;
4565;SDS011;2295;51.050;14.608;2023-05-29T13:39:17;3.70;;;2.50;;
4565;SDS011;2295;51.050;14.608;2023-05-29T13:41:48;9.97;;;2.60;;
4565;SDS011;2295;51.050;14.608;2023-05-29T13:44:16;4.80;;;2.40;;
4565;SDS011;2295;51.050;14.608;2023-05-29T13:46:45;2.30;;;2.10;;
4565;SDS011;2295;51.050;14.608;2023-05-29T13:49:15;2.27;;;2.07;;
4565;SDS011;2295;51.050;14.608;2023-05-29T13:51:43;2.70;;;2.00;;
4565;SDS011;2295;51.050;14.608;2023-05-29T13:54:15;6.93;;;2.30;;
4565;SDS011;2295;51.050;14.608;2023-05-29T13:56:44;5.13;;;2.23;;
4565;SDS011;2295;51.050;14.608;2023-05-29T13:59:13;2.50;;;2.30;;
4565;SDS011;2295;51.050;14.608;2023-05-29T14:01:41;7.73;;;2.23;;
4565;SDS011;2295;51.050;14.608;2023-05-29T14:04:10;10.10;;;2.87;;
4565;SDS011;2295;51.050;14.608;2023-05-29T14:06:39;6.67;;;3.17;;
4565;SDS011;2295;51.050;14.608;2023-05-29T14:09:08;5.97;;;3.33;;
4565;SDS011;2295;51.050;14.608;2023-05-29T14:11:36;4.50;;;3.23;;
4565;SDS011;2295;51.050;14.608;2023-05-29T14:14:04;2.77;;;2.40;;
4565;SDS011;2295;51.050;14.608;2023-05-29T14:16:33;6.80;;;3.03;;
4565;SDS011;2295;51.050;14.608;2023-05-29T14:19:02;7.77;;;2.70;;
4565;SDS011;2295;51.050;14.608;2023-05-29T14:21:30;3.03;;;2.80;;
4565;SDS011;2295;51.050;14.608;2023-05-29T14:24:00;4.77;;;2.93;;
4565;SDS011;2295;51.050;14.608;2023-05-29T14:26:28;5.43;;;2.97;;
4565;SDS011;2295;51.050;14.608;2023-05-29T14:28:56;3.33;;;3.03;;
4565;SDS011;2295;51.050;14.608;2023-05-29T14:31:39;6.53;;;2.97;;
4565;SDS011;2295;51.050;14.608;2023-05-29T14:34:08;7.00;;;3.33;;
4565;SDS011;2295;51.050;14.608;2023-05-29T14:36:36;2.83;;;2.57;;
4565;SDS011;2295;51.050;14.608;2023-05-29T14:39:06;5.93;;;3.20;;
4565;SDS011;2295;51.050;14.608;2023-05-29T14:41:35;4.03;;;3.00;;
4565;SDS011;2295;51.050;14.608;2023-05-29T14:44:03;10.83;;;2.90;;
4565;SDS011;2295;51.050;14.608;2023-05-29T14:46:31;5.43;;;3.30;;
4565;SDS011;2295;51.050;14.608;2023-05-29T14:49:00;7.27;;;2.97;;
4565;SDS011;2295;51.050;14.608;2023-05-29T14:51:29;5.20;;;3.37;;
4565;SDS011;2295;51.050;14.608;2023-05-29T14:53:57;10.33;;;2.93;;
4565;SDS011;2295;51.050;14.608;2023-05-29T14:56:26;6.60;;;3.10;;
4565;SDS011;2295;51.050;14.608;2023-05-29T14:58:55;4.70;;;3.03;;
4565;SDS011;2295;51.050;14.608;2023-05-29T15:01:23;6.90;;;3.13;;
4565;SDS011;2295;51.050;14.608;2023-05-29T15:03:52;8.63;;;3.07;;
4565;SDS011;2295;51.050;14.608;2023-05-29T15:06:20;4.60;;;3.17;;
4565;SDS011;2295;51.050;14.608;2023-05-29T15:08:49;5.90;;;2.93;;
4565;SDS011;2295;51.050;14.608;2023-05-29T15:11:20;3.10;;;2.80;;
4565;SDS011;2295;51.050;14.608;2023-05-29T15:13:51;3.73;;;2.87;;
4565;SDS011;2295;51.050;14.608;2023-05-29T15:16:19;6.20;;;3.23;;
4565;SDS011;2295;51.050;14.608;2023-05-29T15:18:47;4.50;;;3.33;;
4565;SDS011;2295;51.050;14.608;2023-05-29T15:21:16;6.47;;;3.50;;
4565;SDS011;2295;51.050;14.608;2023-05-29T15:23:44;7.43;;;3.60;;